Time;durP1;ratioP1;P1;durP2;ratioP2;P2;SDS_P1;SDS_P2;PMS_P1;PMS_P2;Temp;Humidity;BMP_temperature;BMP_pressure;BME280_temperature;BME280_humidity;BME280_pressure;Samples;Min_cycle;Max_cycle;Signal;HPM_P1;HPM_P2
2021/10/30 00:00:06;;;;;;;6.07;4.13;;;16.80;99.90;;;;;;5049858;28;20222;-71
2021/10/30 00:02:33;;;;;;;10.32;5.75;;;16.80;99.90;;;;;;5050507;28;20199;-71
2021/10/30 00:05:02;;;;;;;8.27;5.45;;;16.90;99.90;;;;;;5047157;28;20670;-71
2021/10/30 00:07:29;;;;;;;9.55;4.85;;;16.90;99.90;;;;;;5050178;28;20207;-68
2021/10/30 00:09:56;;;;;;;9.80;5.28;;;16.80;99.90;;;;;;5050665;28;20231;-67
2021/10/30 00:12:23;;;;;;;7.32;4.68;;;16.80;99.90;;;;;;5050193;28;20743;-68
2021/10/30 00:14:50;;;;;;;7.63;4.32;;;16.80;99.90;;;;;;5050524;28;20257;-69
2021/10/30 00:17:17;;;;;;;12.75;6.38;;;16.90;99.90;;;;;;5049986;28;20210;-69
2021/10/30 00:19:44;;;;;;;11.77;5.43;;;16.90;99.90;;;;;;5050445;28;20233;-69
2021/10/30 00:22:13;;;;;;;9.13;6.20;;;16.80;99.90;;;;;;5049835;28;20207;-69
2021/10/30 00:24:40;;;;;;;6.78;4.55;;;16.90;99.90;;;;;;5050252;28;20613;-69
2021/10/30 00:27:10;;;;;;;6.13;4.13;;;16.90;99.90;;;;;;5049943;28;20211;-69
2021/10/30 00:29:37;;;;;;;5.28;3.70;;;16.80;99.90;;;;;;5049944;28;20237;-69
2021/10/30 00:32:05;;;;;;;6.80;4.32;;;16.90;99.90;;;;;;5050002;28;20297;-69
2021/10/30 00:34:32;;;;;;;8.75;6.25;;;16.90;99.90;;;;;;5053914;28;20203;-69
2021/10/30 00:36:59;;;;;;;7.75;3.90;;;17.00;99.90;;;;;;5053773;28;20678;-69
2021/10/30 00:39:28;;;;;;;8.05;4.38;;;16.90;99.90;;;;;;5054046;28;20283;-69
2021/10/30 00:41:56;;;;;;;7.57;4.18;;;16.80;99.90;;;;;;5054551;28;20206;-69
2021/10/30 00:44:23;;;;;;;5.88;4.50;;;16.80;99.90;;;;;;5054225;28;20210;-68
2021/10/30 00:46:52;;;;;;;11.13;5.05;;;16.80;99.90;;;;;;5054073;28;20670;-70
2021/10/30 00:49:21;;;;;;;5.65;4.28;;;16.80;99.90;;;;;;5053424;28;20254;-69
2021/10/30 00:51:51;;;;;;;9.07;4.70;;;16.80;99.90;;;;;;5053977;28;20259;-69
2021/10/30 00:54:19;;;;;;;8.25;5.00;;;16.80;99.90;;;;;;5053655;28;20264;-69
2021/10/30 00:56:49;;;;;;;7.22;4.30;;;16.80;99.90;;;;;;5053587;28;20622;-69
2021/10/30 00:59:17;;;;;;;8.02;4.18;;;16.80;99.90;;;;;;5053299;28;20226;-70
2021/10/30 01:01:47;;;;;;;9.10;4.68;;;16.80;99.90;;;;;;5053401;28;20598;-70
2021/10/30 01:04:14;;;;;;;11.40;5.45;;;16.70;99.90;;;;;;5053476;28;20736;-69
2021/10/30 01:06:44;;;;;;;6.82;4.32;;;16.70;99.90;;;;;;5053468;28;20211;-70
2021/10/30 01:09:12;;;;;;;9.88;4.72;;;16.60;99.90;;;;;;5053054;28;20665;-70
2021/10/30 01:11:39;;;;;;;10.77;4.25;;;16.60;99.90;;;;;;5053271;28;20210;-70
2021/10/30 01:14:08;;;;;;;9.77;4.85;;;16.60;99.90;;;;;;5053077;28;20252;-70
2021/10/30 01:16:35;;;;;;;7.78;4.30;;;16.50;99.90;;;;;;5053423;28;20249;-70
2021/10/30 01:19:03;;;;;;;9.38;5.40;;;16.50;99.90;;;;;;5053026;28;20211;-70
2021/10/30 01:21:33;;;;;;;6.95;4.25;;;16.50;99.90;;;;;;5053376;28;20264;-70
2021/10/30 01:24:01;;;;;;;6.68;4.38;;;16.40;99.90;;;;;;5052968;28;20285;-69
2021/10/30 01:26:29;;;;;;;7.45;4.50;;;16.50;99.90;;;;;;5053067;28;20736;-70
2021/10/30 01:28:56;;;;;;;4.53;4.10;;;16.60;99.90;;;;;;5052841;28;20266;-70
2021/10/30 01:31:24;;;;;;;7.85;4.43;;;16.70;99.90;;;;;;5053655;28;20227;-70
2021/10/30 01:33:51;;;;;;;7.38;4.30;;;16.80;99.90;;;;;;5053519;28;20294;-69
2021/10/30 01:36:21;;;;;;;8.55;4.15;;;16.90;99.90;;;;;;5052763;28;20700;-69
2021/10/30 01:38:51;;;;;;;5.35;3.55;;;16.80;99.90;;;;;;5053159;28;20681;-69
2021/10/30 01:41:22;;;;;;;7.57;4.32;;;16.90;99.90;;;;;;5052238;28;20292;-70
2021/10/30 01:43:49;;;;;;;4.13;3.45;;;16.90;99.90;;;;;;5052673;28;20211;-71
2021/10/30 01:46:18;;;;;;;4.15;3.42;;;16.70;99.90;;;;;;5051790;28;20648;-70
2021/10/30 01:48:45;;;;;;;5.97;4.47;;;16.70;99.90;;;;;;5052917;28;20213;-70
2021/10/30 01:51:12;;;;;;;4.85;3.85;;;16.60;99.90;;;;;;5052297;28;20802;-70
2021/10/30 01:53:39;;;;;;;6.55;3.38;;;16.70;99.90;;;;;;5052749;28;20219;-70
2021/10/30 01:56:08;;;;;;;5.20;3.38;;;16.70;99.90;;;;;;5051920;28;20593;-70
2021/10/30 01:58:35;;;;;;;8.18;4.43;;;16.80;99.90;;;;;;5052643;28;20682;-70
2021/10/30 02:01:03;;;;;;;6.93;3.80;;;16.80;99.90;;;;;;5052287;28;20257;-70
2021/10/30 02:03:31;;;;;;;5.32;3.47;;;16.70;99.90;;;;;;5052859;28;20322;-69
2021/10/30 02:05:59;;;;;;;22.65;5.88;;;16.60;99.90;;;;;;5052442;28;20211;-69
2021/10/30 02:08:26;;;;;;;12.77;4.20;;;16.70;99.90;;;;;;5052666;28;20211;-69
2021/10/30 02:10:53;;;;;;;6.47;4.38;;;16.60;99.90;;;;;;5052729;28;20235;-69
2021/10/30 02:13:22;;;;;;;7.18;4.05;;;16.50;99.90;;;;;;5051904;28;20203;-69
2021/10/30 02:15:50;;;;;;;6.65;4.78;;;16.50;99.90;;;;;;5052443;28;20214;-69
2021/10/30 02:18:17;;;;;;;9.07;3.97;;;16.50;99.90;;;;;;5051812;28;20735;-70
2021/10/30 02:20:45;;;;;;;4.13;3.58;;;16.50;99.90;;;;;;5052212;28;20213;-69
2021/10/30 02:23:12;;;;;;;4.90;4.20;;;16.40;99.90;;;;;;5051824;28;20253;-69
2021/10/30 02:25:40;;;;;;;5.78;3.50;;;16.40;99.90;;;;;;5051858;28;20219;-69
2021/10/30 02:28:06;;;;;;;9.52;4.07;;;16.40;99.90;;;;;;5052030;28;20264;-70
2021/10/30 02:30:35;;;;;;;11.75;5.25;;;16.50;99.90;;;;;;5051944;28;20227;-69
2021/10/30 02:33:02;;;;;;;5.05;4.05;;;16.70;99.90;;;;;;5051542;28;20670;-69
2021/10/30 02:35:29;;;;;;;6.85;3.58;;;16.70;99.90;;;;;;5051798;28;20743;-69
2021/10/30 02:37:56;;;;;;;5.45;3.90;;;16.70;99.90;;;;;;5051863;28;20651;-70
2021/10/30 02:40:23;;;;;;;4.55;3.97;;;16.60;99.90;;;;;;5052008;28;20215;-69
2021/10/30 02:42:50;;;;;;;5.25;3.78;;;16.50;99.90;;;;;;5051522;28;20619;-69
2021/10/30 02:45:17;;;;;;;7.15;3.53;;;16.30;99.90;;;;;;5051702;28;20214;-69
2021/10/30 02:47:45;;;;;;;4.32;3.78;;;16.30;99.90;;;;;;5051631;28;20805;-68
2021/10/30 02:50:12;;;;;;;5.05;3.78;;;16.20;99.90;;;;;;5051041;28;20226;-68
2021/10/30 02:52:40;;;;;;;3.83;3.30;;;16.50;99.90;;;;;;5051401;28;20210;-69
2021/10/30 02:55:08;;;;;;;4.32;3.15;;;16.30;99.90;;;;;;5051588;28;20293;-69
2021/10/30 02:57:35;;;;;;;4.85;4.20;;;16.30;99.90;;;;;;5051771;28;20288;-68
2021/10/30 03:00:02;;;;;;;4.95;4.10;;;16.30;99.90;;;;;;5050978;28;20280;-69
2021/10/30 03:02:29;;;;;;;3.90;3.28;;;16.20;99.90;;;;;;5051659;28;20226;-69
2021/10/30 03:04:57;;;;;;;6.10;3.97;;;16.40;99.90;;;;;;5051724;28;20256;-68
2021/10/30 03:07:24;;;;;;;4.28;3.08;;;16.20;99.90;;;;;;5051832;28;20217;-69
2021/10/30 03:09:51;;;;;;;5.65;3.92;;;16.10;99.90;;;;;;5051586;28;20226;-68
2021/10/30 03:12:19;;;;;;;5.40;3.30;;;16.30;99.90;;;;;;5050895;28;20261;-68
2021/10/30 03:14:46;;;;;;;5.57;3.60;;;16.40;99.90;;;;;;5051231;28;20222;-69
2021/10/30 03:17:13;;;;;;;4.60;3.58;;;16.40;99.90;;;;;;5050676;28;20256;-69
2021/10/30 03:19:40;;;;;;;4.70;4.30;;;16.50;99.90;;;;;;5051476;28;20206;-69
2021/10/30 03:22:09;;;;;;;5.72;3.53;;;16.60;99.90;;;;;;5050550;28;20207;-68
2021/10/30 03:24:36;;;;;;;8.23;3.75;;;16.70;99.90;;;;;;5051066;28;20289;-69
2021/10/30 03:27:04;;;;;;;4.40;3.53;;;16.80;99.90;;;;;;5050683;28;20214;-69
2021/10/30 03:29:31;;;;;;;6.45;3.67;;;16.80;99.90;;;;;;5051041;28;20203;-69
2021/10/30 03:31:58;;;;;;;4.47;3.38;;;16.80;99.90;;;;;;5050878;28;20288;-70
2021/10/30 03:34:25;;;;;;;7.28;3.35;;;16.80;99.90;;;;;;5050969;28;20252;-69
2021/10/30 03:36:52;;;;;;;7.78;3.70;;;16.80;99.90;;;;;;5050921;28;20215;-68
2021/10/30 03:39:20;;;;;;;4.30;3.90;;;16.90;99.90;;;;;;5050281;28;20755;-68
2021/10/30 03:41:47;;;;;;;9.23;3.55;;;16.80;99.90;;;;;;5050715;28;20728;-68
2021/10/30 03:44:14;;;;;;;13.32;3.63;;;16.90;99.90;;;;;;5050049;28;20253;-69
2021/10/30 03:46:41;;;;;;;5.80;3.63;;;16.80;99.90;;;;;;5050782;28;20265;-69
2021/10/30 03:49:08;;;;;;;7.32;4.45;;;16.80;99.90;;;;;;5050186;28;20670;-69
2021/10/30 03:51:35;;;;;;;3.88;3.58;;;16.80;99.90;;;;;;5050444;28;20272;-69
2021/10/30 03:54:02;;;;;;;5.68;3.25;;;16.80;99.90;;;;;;5050385;28;20211;-69
2021/10/30 03:56:31;;;;;;;5.50;3.65;;;16.80;99.90;;;;;;5050377;28;20211;-68
2021/10/30 03:58:57;;;;;;;6.75;3.90;;;16.70;99.90;;;;;;5050449;28;20225;-69
2021/10/30 04:01:24;;;;;;;3.90;3.50;;;16.70;99.90;;;;;;5050841;28;20283;-69
2021/10/30 04:03:51;;;;;;;5.30;4.10;;;16.70;99.90;;;;;;5051135;28;20214;-69
2021/10/30 04:06:18;;;;;;;9.07;3.80;;;16.60;99.90;;;;;;5049574;28;20261;-68
2021/10/30 04:08:45;;;;;;;5.80;3.83;;;16.50;99.90;;;;;;5049997;28;20211;-69
2021/10/30 04:11:13;;;;;;;8.30;4.25;;;16.50;99.90;;;;;;5049755;28;20709;-68
2021/10/30 04:13:41;;;;;;;4.10;3.70;;;16.50;99.90;;;;;;5050331;28;20233;-69
2021/10/30 04:16:08;;;;;;;3.60;2.95;;;16.60;99.90;;;;;;5050049;28;20211;-69
2021/10/30 04:18:35;;;;;;;4.15;3.72;;;16.60;99.90;;;;;;5050225;28;20214;-69
2021/10/30 04:21:02;;;;;;;4.43;3.30;;;16.60;99.90;;;;;;5049711;28;20211;-69
2021/10/30 04:23:29;;;;;;;4.63;3.70;;;16.70;99.90;;;;;;5050426;28;20210;-68
2021/10/30 04:25:56;;;;;;;5.63;3.55;;;16.60;99.90;;;;;;5050082;28;20203;-69
2021/10/30 04:28:23;;;;;;;5.30;3.60;;;16.50;99.90;;;;;;5050363;28;20206;-68
2021/10/30 04:30:52;;;;;;;3.88;3.50;;;16.60;99.90;;;;;;5050150;28;20230;-69
2021/10/30 04:33:19;;;;;;;5.55;3.13;;;16.60;99.90;;;;;;5049808;28;20617;-69
2021/10/30 04:35:48;;;;;;;3.85;3.55;;;16.80;99.90;;;;;;5049923;28;20662;-69
2021/10/30 04:38:15;;;;;;;4.25;3.30;;;16.80;99.90;;;;;;5049932;28;20213;-69
2021/10/30 04:40:42;;;;;;;4.43;3.72;;;16.60;99.90;;;;;;5049818;28;20681;-68
2021/10/30 04:43:09;;;;;;;6.95;3.60;;;16.40;99.90;;;;;;5049792;28;20253;-68
2021/10/30 04:45:39;;;;;;;5.30;3.30;;;16.30;99.90;;;;;;5050180;28;20211;-69
2021/10/30 04:48:08;;;;;;;3.72;3.33;;;16.20;99.90;;;;;;5049543;28;20203;-69
2021/10/30 04:50:35;;;;;;;4.95;3.28;;;16.10;99.90;;;;;;5049736;28;20258;-69
2021/10/30 04:53:02;;;;;;;3.65;3.30;;;16.10;99.90;;;;;;5049219;28;20203;-69
2021/10/30 04:55:29;;;;;;;3.83;3.40;;;16.10;99.90;;;;;;5049974;28;20306;-68
2021/10/30 04:57:56;;;;;;;3.90;3.50;;;16.10;99.90;;;;;;5050017;28;20824;-69
2021/10/30 05:00:23;;;;;;;5.85;2.97;;;16.00;99.90;;;;;;5049446;28;20336;-69
2021/10/30 05:02:50;;;;;;;4.93;3.97;;;16.10;99.90;;;;;;5049958;28;20210;-69
2021/10/30 05:05:18;;;;;;;7.18;4.35;;;16.30;99.90;;;;;;5049335;28;20258;-69
2021/10/30 05:07:45;;;;;;;5.50;4.70;;;16.40;99.90;;;;;;5049734;28;20260;-69
2021/10/30 05:10:14;;;;;;;10.95;3.63;;;16.40;99.90;;;;;;5049955;28;20207;-70
2021/10/30 05:12:40;;;;;;;4.97;3.50;;;16.50;99.90;;;;;;5049887;28;20288;-69
2021/10/30 05:15:09;;;;;;;7.60;3.95;;;16.50;99.90;;;;;;5049518;28;20207;-69
2021/10/30 05:17:36;;;;;;;5.00;4.00;;;16.40;99.90;;;;;;5049645;28;20207;-68
2021/10/30 05:20:04;;;;;;;5.10;3.65;;;16.40;99.90;;;;;;5050762;28;20211;-69
2021/10/30 05:22:33;;;;;;;4.55;4.07;;;16.40;99.90;;;;;;5053340;28;20333;-69
2021/10/30 05:25:00;;;;;;;7.57;3.47;;;16.60;99.90;;;;;;5053340;28;20207;-69
2021/10/30 05:27:29;;;;;;;4.07;3.78;;;16.60;99.90;;;;;;5053375;28;20268;-70
2021/10/30 05:29:56;;;;;;;6.68;4.68;;;16.50;99.90;;;;;;5053265;28;20242;-69
2021/10/30 05:32:23;;;;;;;4.53;3.08;;;16.50;99.90;;;;;;5052671;28;20291;-69
2021/10/30 05:34:53;;;;;;;6.72;3.97;;;16.70;99.90;;;;;;5052728;28;20284;-69
2021/10/30 05:37:21;;;;;;;4.95;3.70;;;16.60;99.90;;;;;;5052745;28;20202;-68
2021/10/30 05:39:50;;;;;;;5.70;4.20;;;16.60;99.90;;;;;;5052952;28;20296;-67
2021/10/30 05:42:17;;;;;;;4.47;3.08;;;16.60;99.90;;;;;;5046240;28;20206;-68
2021/10/30 05:44:45;;;;;;;4.82;3.47;;;16.60;99.90;;;;;;5052718;28;20214;-68
2021/10/30 05:47:12;;;;;;;4.60;3.35;;;16.50;99.90;;;;;;5052201;28;20253;-68
2021/10/30 05:49:42;;;;;;;6.72;3.40;;;16.50;99.90;;;;;;5052817;28;20203;-68
2021/10/30 05:52:09;;;;;;;3.78;3.08;;;16.50;99.90;;;;;;5052107;28;20601;-69
2021/10/30 05:54:38;;;;;;;5.93;4.30;;;16.50;99.90;;;;;;5052690;28;20206;-69
2021/10/30 05:57:10;;;;;;;4.68;3.90;;;16.40;99.90;;;;;;5052156;28;20285;-68
2021/10/30 05:59:37;;;;;;;4.75;3.72;;;16.40;99.90;;;;;;5052483;28;20224;-69
2021/10/30 06:02:05;;;;;;;6.65;4.07;;;16.50;99.90;;;;;;5051752;28;20670;-69
2021/10/30 06:04:33;;;;;;;6.38;3.60;;;16.40;99.90;;;;;;5052457;28;20242;-69
2021/10/30 06:07:00;;;;;;;6.55;4.47;;;16.50;99.90;;;;;;5052547;28;20632;-69
2021/10/30 06:09:27;;;;;;;5.07;3.30;;;16.60;99.90;;;;;;5052745;28;20236;-69
2021/10/30 06:11:54;;;;;;;6.28;4.22;;;16.60;99.90;;;;;;5052402;28;20238;-69
2021/10/30 06:14:22;;;;;;;6.82;4.28;;;16.70;99.90;;;;;;5051784;28;20589;-68
2021/10/30 06:16:49;;;;;;;5.40;4.00;;;16.90;99.90;;;;;;5052272;28;20207;-68
2021/10/30 06:19:16;;;;;;;7.68;4.32;;;17.00;99.90;;;;;;5038944;28;20263;-68
2021/10/30 06:21:43;;;;;;;6.07;3.58;;;17.00;99.90;;;;;;5051249;28;20207;-68
2021/10/30 06:24:10;;;;;;;6.97;3.30;;;17.00;99.90;;;;;;5051457;28;20249;-68
2021/10/30 06:26:37;;;;;;;4.55;3.10;;;16.90;99.90;;;;;;5052263;28;20256;-67
2021/10/30 06:29:04;;;;;;;4.47;3.60;;;16.90;99.90;;;;;;5051264;28;20639;-67
2021/10/30 06:31:33;;;;;;;8.95;3.30;;;16.90;99.90;;;;;;5051708;28;20230;-67
2021/10/30 06:34:00;;;;;;;4.50;3.55;;;17.00;99.90;;;;;;5051351;28;20686;-67
2021/10/30 06:36:27;;;;;;;4.93;3.97;;;17.00;99.90;;;;;;5052047;28;20269;-67
2021/10/30 06:38:54;;;;;;;6.13;3.78;;;17.00;99.90;;;;;;5052031;28;20202;-67
2021/10/30 06:41:21;;;;;;;9.05;3.95;;;17.00;99.90;;;;;;5051318;28;20203;-67
2021/10/30 06:43:47;;;;;;;4.88;3.40;;;16.90;99.90;;;;;;5052054;28;20207;-67
2021/10/30 06:46:14;;;;;;;8.63;4.63;;;16.80;99.90;;;;;;5050294;28;20207;-68
2021/10/30 06:48:43;;;;;;;5.90;3.40;;;16.80;99.90;;;;;;5051898;28;20285;-68
2021/10/30 06:51:11;;;;;;;4.40;3.65;;;16.80;99.90;;;;;;5051191;28;20312;-68
2021/10/30 06:53:38;;;;;;;7.22;3.97;;;16.70;99.90;;;;;;5051529;28;20299;-70
2021/10/30 06:56:07;;;;;;;8.27;4.05;;;16.80;99.90;;;;;;5050752;28;20622;-69
2021/10/30 06:58:34;;;;;;;2.83;2.63;;;16.80;99.90;;;;;;5051471;28;20203;-68
2021/10/30 07:01:01;;;;;;;4.50;3.45;;;16.80;99.90;;;;;;5050766;28;20265;-68
2021/10/30 07:03:28;;;;;;;4.15;3.75;;;16.80;99.90;;;;;;5051663;28;20590;-68
2021/10/30 07:05:57;;;;;;;3.97;3.67;;;16.80;99.90;;;;;;5051974;28;20202;-68
2021/10/30 07:08:24;;;;;;;4.93;3.10;;;17.00;99.90;;;;;;5050959;28;20677;-68
2021/10/30 07:10:51;;;;;;;4.57;3.22;;;17.00;99.90;;;;;;5051599;28;20239;-68
2021/10/30 07:13:18;;;;;;;6.32;4.03;;;17.00;99.90;;;;;;5050729;28;20628;-68
2021/10/30 07:15:46;;;;;;;5.15;4.18;;;17.10;99.90;;;;;;5051071;28;20211;-68
2021/10/30 07:18:13;;;;;;;3.90;3.22;;;17.00;99.90;;;;;;5051086;28;20207;-69
2021/10/30 07:20:40;;;;;;;5.82;3.03;;;17.00;99.90;;;;;;5051130;28;20203;-68
2021/10/30 07:23:09;;;;;;;5.50;3.90;;;17.10;99.90;;;;;;5050719;28;20678;-67
2021/10/30 07:25:36;;;;;;;4.68;3.42;;;17.20;99.90;;;;;;5051168;28;20206;-67
2021/10/30 07:28:03;;;;;;;3.72;3.20;;;17.20;99.90;;;;;;5050526;28;20294;-67
2021/10/30 07:30:30;;;;;;;4.90;3.33;;;17.30;99.90;;;;;;5049017;28;20256;-67
2021/10/30 07:32:57;;;;;;;3.88;3.58;;;17.30;99.90;;;;;;5051118;28;20231;-67
2021/10/30 07:35:25;;;;;;;4.15;3.28;;;17.30;99.90;;;;;;5051000;28;20233;-67
2021/10/30 07:37:57;;;;;;;5.32;3.13;;;17.30;99.90;;;;;;5051193;28;20301;-67
2021/10/30 07:40:26;;;;;;;3.63;3.08;;;17.40;99.90;;;;;;5051148;28;20198;-67
2021/10/30 07:42:53;;;;;;;6.82;3.50;;;17.40;99.90;;;;;;5050217;28;20207;-68
2021/10/30 07:45:21;;;;;;;3.38;3.08;;;17.50;99.90;;;;;;5050708;28;20211;-67
2021/10/30 07:47:48;;;;;;;3.80;2.63;;;17.60;99.90;;;;;;5050585;28;20207;-68
2021/10/30 07:50:15;;;;;;;3.45;2.80;;;17.60;99.90;;;;;;5050220;28;20462;-67
2021/10/30 07:52:43;;;;;;;3.63;3.15;;;17.70;99.90;;;;;;5050657;28;20238;-68
2021/10/30 07:55:10;;;;;;;5.15;3.53;;;17.70;99.90;;;;;;5050363;28;20253;-68
2021/10/30 07:57:38;;;;;;;2.90;2.60;;;17.70;99.90;;;;;;5050671;28;20211;-68
2021/10/30 08:00:06;;;;;;;4.32;2.50;;;17.80;99.90;;;;;;5036192;28;20210;-68
2021/10/30 08:02:34;;;;;;;3.30;2.97;;;17.80;99.90;;;;;;5050467;28;20211;-68
2021/10/30 08:05:01;;;;;;;2.72;2.53;;;17.80;99.90;;;;;;5050170;28;20261;-67
2021/10/30 08:07:28;;;;;;;4.07;2.45;;;17.80;99.90;;;;;;5050727;28;20214;-67
2021/10/30 08:09:55;;;;;;;2.65;2.17;;;17.90;99.90;;;;;;5050845;28;20203;-68
2021/10/30 08:12:22;;;;;;;3.60;2.60;;;17.90;99.90;;;;;;5050002;28;20230;-67
2021/10/30 08:14:51;;;;;;;2.70;2.30;;;18.00;99.90;;;;;;5050388;28;20628;-67
2021/10/30 08:17:18;;;;;;;2.15;1.85;;;18.00;99.90;;;;;;5049720;28;20233;-67
2021/10/30 08:19:45;;;;;;;5.30;2.20;;;18.00;99.90;;;;;;5050610;28;20294;-67
2021/10/30 08:22:12;;;;;;;3.08;1.90;;;18.00;99.90;;;;;;5049946;28;20211;-68
2021/10/30 08:24:39;;;;;;;3.70;2.05;;;18.10;99.90;;;;;;5050436;28;20206;-67
2021/10/30 08:27:06;;;;;;;3.47;2.90;;;18.10;99.90;;;;;;5049710;28;20207;-67
2021/10/30 08:29:33;;;;;;;3.75;2.30;;;18.20;99.90;;;;;;5050154;28;20732;-67
2021/10/30 08:32:02;;;;;;;2.67;2.42;;;18.20;99.90;;;;;;5049665;28;20283;-67
2021/10/30 08:34:29;;;;;;;6.18;2.05;;;18.20;99.90;;;;;;5050192;28;20214;-68
2021/10/30 08:36:56;;;;;;;2.58;2.20;;;18.30;99.90;;;;;;5050368;28;20647;-67
2021/10/30 08:39:23;;;;;;;2.40;1.83;;;18.40;99.90;;;;;;5049965;28;20210;-67
2021/10/30 08:41:50;;;;;;;7.78;2.00;;;18.50;99.90;;;;;;5049353;28;20264;-67
2021/10/30 08:44:19;;;;;;;4.25;2.35;;;18.60;99.90;;;;;;5046844;28;20666;-67
2021/10/30 08:46:47;;;;;;;2.28;1.73;;;18.60;99.90;;;;;;5040917;28;20619;-67
2021/10/30 08:49:17;;;;;;;3.78;2.63;;;18.70;99.90;;;;;;5047553;28;20743;-67
2021/10/30 08:51:44;;;;;;;3.00;2.10;;;18.80;99.90;;;;;;5047052;28;20296;-67
2021/10/30 08:54:11;;;;;;;4.38;2.00;;;18.90;99.90;;;;;;5048940;28;20214;-67
2021/10/30 08:56:39;;;;;;;2.78;1.70;;;18.90;99.90;;;;;;5052379;28;20552;-67
2021/10/30 08:59:06;;;;;;;3.17;2.75;;;19.00;99.90;;;;;;5053356;28;20223;-67
2021/10/30 09:01:44;;;;;;;6.30;2.33;;;19.00;99.90;;;;;;5053632;28;20203;-67
2021/10/30 09:04:14;;;;;;;5.18;2.83;;;19.00;99.90;;;;;;5053317;28;20635;-67
2021/10/30 09:06:44;;;;;;;5.78;2.47;;;19.30;99.90;;;;;;5053377;28;20294;-67
2021/10/30 09:09:16;;;;;;;3.83;2.80;;;19.50;99.90;;;;;;5053521;28;20215;-67
2021/10/30 09:11:53;;;;;;;11.02;2.33;;;19.50;99.90;;;;;;5052939;28;20736;-67
2021/10/30 09:14:22;;;;;;;4.85;3.28;;;19.50;99.90;;;;;;5052930;28;20289;-67
2021/10/30 09:17:10;;;;;;;4.07;2.60;;;19.50;99.90;;;;;;5053470;28;20724;-67
2021/10/30 09:19:39;;;;;;;5.38;2.60;;;19.50;99.90;;;;;;5042618;28;20214;-67
2021/10/30 09:22:07;;;;;;;6.68;2.42;;;19.50;99.90;;;;;;5053036;28;20245;-67
2021/10/30 09:24:55;;;;;;;5.03;2.50;;;19.70;99.90;;;;;;5053444;28;20214;-67
2021/10/30 09:27:47;;;;;;;3.90;2.38;;;19.70;99.90;;;;;;5053107;28;20210;-67
2021/10/30 09:30:15;;;;;;;7.50;2.30;;;19.70;99.90;;;;;;5052962;28;20268;-67
2021/10/30 09:32:50;;;;;;;4.85;2.30;;;19.70;99.90;;;;;;5053254;28;20231;-67
2021/10/30 09:35:22;;;;;;;5.60;2.25;;;19.90;99.90;;;;;;5052902;28;20206;-67
2021/10/30 09:37:51;;;;;;;2.30;2.05;;;20.00;99.90;;;;;;5053196;28;20207;-68
2021/10/30 09:40:24;;;;;;;5.07;2.33;;;20.20;99.90;;;;;;5052428;28;20666;-67
2021/10/30 09:43:09;;;;;;;6.38;2.15;;;20.30;99.90;;;;;;5053307;28;20215;-67
2021/10/30 09:45:39;;;;;;;8.57;2.90;;;20.10;99.90;;;;;;5053310;28;20211;-67
2021/10/30 09:48:08;;;;;;;20.35;4.75;;;20.10;99.90;;;;;;5052616;28;20207;-68
2021/10/30 09:50:35;;;;;;;5.68;2.53;;;20.30;99.90;;;;;;5053181;28;20627;-67
2021/10/30 09:53:25;;;;;;;2.63;2.42;;;20.50;99.90;;;;;;5052232;28;20223;-67
2021/10/30 09:55:53;;;;;;;4.47;2.15;;;20.60;99.90;;;;;;5053405;28;20261;-66
2021/10/30 09:58:29;;;;;;;30.98;4.20;;;20.60;99.90;;;;;;5052393;28;20268;-67
2021/10/30 10:00:57;;;;;;;3.85;3.13;;;20.60;99.90;;;;;;5052631;28;20285;-67
2021/10/30 10:03:27;;;;;;;6.22;2.92;;;20.60;99.90;;;;;;5052512;28;20583;-66
2021/10/30 10:05:56;;;;;;;2.40;1.92;;;20.60;99.90;;;;;;5051979;28;20205;-67
2021/10/30 10:08:26;;;;;;;4.18;2.35;;;20.60;99.90;;;;;;5052041;28;20636;-67
2021/10/30 10:10:55;;;;;;;4.90;2.22;;;20.40;99.90;;;;;;5052954;28;20290;-66
2021/10/30 10:13:23;;;;;;;5.38;2.55;;;20.30;99.90;;;;;;5052099;28;20727;-66
2021/10/30 10:15:51;;;;;;;4.50;2.35;;;20.60;99.90;;;;;;5052193;28;20673;-66
2021/10/30 10:18:18;;;;;;;6.32;2.58;;;20.70;99.90;;;;;;5052354;28;20219;-67
2021/10/30 10:20:46;;;;;;;2.20;1.88;;;20.50;99.90;;;;;;5052130;28;20207;-67
2021/10/30 10:23:14;;;;;;;22.27;2.80;;;20.70;99.90;;;;;;5052084;28;20264;-67
2021/10/30 10:25:51;;;;;;;3.60;2.03;;;21.00;99.90;;;;;;5052237;28;20300;-67
2021/10/30 10:28:33;;;;;;;5.32;3.20;;;21.30;99.90;;;;;;5051925;28;20668;-67
2021/10/30 10:31:03;;;;;;;3.80;2.20;;;20.80;99.90;;;;;;5051565;28;20203;-68
2021/10/30 10:33:31;;;;;;;4.97;2.17;;;20.80;99.90;;;;;;5052330;28;20241;-68
2021/10/30 10:36:26;;;;;;;3.45;1.92;;;20.80;99.90;;;;;;5052143;28;20286;-68
2021/10/30 10:39:11;;;;;;;10.50;2.30;;;21.30;99.90;;;;;;5052287;28;20563;-67
2021/10/30 10:42:03;;;;;;;5.25;1.83;;;21.60;99.90;;;;;;5049513;28;20207;-68
2021/10/30 10:45:04;;;;;;;7.90;2.67;;;21.40;99.90;;;;;;5051600;28;20206;-67
2021/10/30 10:47:58;;;;;;;2.92;1.80;;;21.40;99.90;;;;;;5051926;28;20202;-69
2021/10/30 10:50:43;;;;;;;2.83;2.30;;;21.30;99.90;;;;;;5051519;28;20213;-68
2021/10/30 10:53:27;;;;;;;3.15;2.38;;;21.40;99.90;;;;;;5051029;28;20701;-69
2021/10/30 10:56:16;;;;;;;5.60;2.50;;;21.50;99.90;;;;;;5051479;28;20268;-69
2021/10/30 10:59:15;;;;;;;3.50;2.10;;;21.70;99.90;;;;;;5040556;28;20245;-69
2021/10/30 11:02:12;;;;;;;5.00;2.47;;;22.00;99.90;;;;;;5051337;28;20268;-71
2021/10/30 11:04:39;;;;;;;3.08;2.33;;;22.20;99.90;;;;;;5048957;28;20211;-67
2021/10/30 11:07:14;;;;;;;3.20;1.80;;;22.10;99.90;;;;;;5050900;28;20257;-68
2021/10/30 11:10:01;;;;;;;3.58;1.73;;;22.30;99.90;;;;;;5050604;28;20289;-67
2021/10/30 11:12:28;;;;;;;5.38;2.47;;;22.20;99.90;;;;;;5048956;28;20296;-68
2021/10/30 11:15:08;;;;;;;4.22;2.42;;;22.50;99.90;;;;;;5051498;28;20257;-68
2021/10/30 11:17:44;;;;;;;9.82;2.85;;;22.50;99.90;;;;;;5048967;28;20199;-68
2021/10/30 11:20:15;;;;;;;7.80;2.10;;;22.50;99.90;;;;;;5048588;28;20206;-68
2021/10/30 11:23:00;;;;;;;3.10;1.98;;;22.50;99.90;;;;;;5049393;28;20206;-68
2021/10/30 11:25:27;;;;;;;4.22;2.20;;;22.40;99.90;;;;;;5047895;28;20209;-68
2021/10/30 11:27:55;;;;;;;4.35;1.90;;;22.30;99.90;;;;;;5050920;28;20206;-68
2021/10/30 11:30:37;;;;;;;3.53;2.20;;;22.20;99.90;;;;;;5050497;28;20207;-68
2021/10/30 11:33:25;;;;;;;4.88;2.35;;;22.30;99.90;;;;;;5049669;28;20237;-68
2021/10/30 11:36:03;;;;;;;8.10;2.53;;;22.20;99.90;;;;;;5049311;28;20576;-68
2021/10/30 11:38:32;;;;;;;4.03;2.38;;;22.50;99.90;;;;;;5050802;28;20207;-70
2021/10/30 11:41:01;;;;;;;12.05;3.67;;;22.70;99.90;;;;;;5050632;28;20221;-71
2021/10/30 11:43:29;;;;;;;3.38;1.83;;;22.90;99.90;;;;;;5050660;28;20570;-70
2021/10/30 11:46:00;;;;;;;2.83;1.85;;;22.80;99.90;;;;;;5051161;28;20207;-68
2021/10/30 11:48:37;;;;;;;3.88;1.65;;;22.60;99.90;;;;;;5051341;28;20203;-69
2021/10/30 11:51:05;;;;;;;6.38;2.10;;;22.50;99.90;;;;;;5050125;28;20206;-68
2021/10/30 11:53:32;;;;;;;4.47;1.77;;;22.40;99.90;;;;;;5050779;28;20266;-68
2021/10/30 11:56:05;;;;;;;6.40;2.65;;;22.10;99.90;;;;;;5050067;28;20264;-68
2021/10/30 11:58:51;;;;;;;4.93;2.00;;;22.10;99.90;;;;;;5050443;28;20195;-68
2021/10/30 12:01:21;;;;;;;1.40;1.25;;;22.10;99.90;;;;;;5049488;28;20221;-68
2021/10/30 12:03:49;;;;;;;1.10;1.00;;;22.10;99.90;;;;;;5048957;28;20215;-68
2021/10/30 12:06:17;;;;;;;2.45;1.70;;;21.90;99.90;;;;;;5043970;28;20206;-68
2021/10/30 12:08:44;;;;;;;1.80;1.27;;;21.80;99.90;;;;;;5047559;28;20203;-68
2021/10/30 12:11:11;;;;;;;3.72;1.95;;;21.70;99.90;;;;;;5047072;28;20211;-68
2021/10/30 12:13:42;;;;;;;2.97;1.60;;;21.70;99.90;;;;;;5049971;28;20316;-69
2021/10/30 12:16:09;;;;;;;1.80;1.45;;;21.70;99.90;;;;;;5049620;28;20203;-69
2021/10/30 12:18:38;;;;;;;2.95;1.42;;;21.60;99.90;;;;;;5048925;28;20211;-69
2021/10/30 12:21:05;;;;;;;7.35;1.92;;;21.50;99.90;;;;;;5049552;28;20221;-69
2021/10/30 12:23:32;;;;;;;1.30;1.10;;;21.60;99.90;;;;;;5046779;28;20634;-69
2021/10/30 12:26:04;;;;;;;2.50;1.20;;;21.50;99.90;;;;;;5049583;28;20731;-69
2021/10/30 12:28:32;;;;;;;2.42;1.52;;;21.50;99.90;;;;;;5050348;28;20216;-68
2021/10/30 12:30:59;;;;;;;2.50;1.60;;;21.50;99.90;;;;;;5053749;28;20202;-69
2021/10/30 12:33:32;;;;;;;1.85;1.70;;;21.50;99.90;;;;;;5054039;28;20277;-69
2021/10/30 12:36:00;;;;;;;2.70;1.45;;;21.50;99.90;;;;;;5053810;28;20674;-68
2021/10/30 12:38:28;;;;;;;1.88;1.50;;;21.50;99.90;;;;;;5054151;28;20633;-68
2021/10/30 12:40:57;;;;;;;3.30;1.98;;;21.40;99.90;;;;;;5054214;28;20214;-71
2021/10/30 12:43:27;;;;;;;2.20;1.23;;;21.30;99.90;;;;;;5053737;28;20414;-68
2021/10/30 12:45:56;;;;;;;3.38;1.05;;;21.30;99.90;;;;;;5053976;28;20202;-69
2021/10/30 12:48:28;;;;;;;2.50;1.20;;;21.20;99.90;;;;;;5053804;28;20203;-69
2021/10/30 12:50:58;;;;;;;2.10;1.35;;;21.10;99.90;;;;;;5053026;28;20598;-68
2021/10/30 12:53:30;;;;;;;3.72;1.83;;;21.10;99.90;;;;;;5043444;28;20222;-68
2021/10/30 12:56:05;;;;;;;2.15;1.10;;;21.10;99.90;;;;;;5050962;28;20690;-68